ZNA weather

Public forecast

Using degrees Celsius for public forecast. Weather courtesy of forecast.io.

Closest aviation weather report (METAR) to Nanaimo Harbour Water Airport

Closest report is Nanaimo Airport, 8.3 nm (15.4 km) SSE. Retrieved 2020/08/12 01:00 UTC (50 seconds ago):

CYCD 120100Z 01006KT 30SM BKN034 OVC210 19/10 A2988 RMK SC5CI3 SLP122 DENSITY ALT 600FT

Closest aviation forecast (TAF) to Nanaimo Harbour Water Airport

Closest forecast is Nanaimo Airport, 8.3 nm (15.4 km) SSE. Retrieved 2020-08-12 00:00 UTC (1 hour ago):

TAF CYCD 112338Z 1200/1204 09008KT P6SM SCT030 OVC220 BECMG 1201/1203 36006KT RMK NXT FCST WILL BE ISSUED AT 121445Z